KDRT/DRT METAR and TAF weather

Enter ICAO airport designator
Station Type Date Time Source
KDRT METAR 2018/07/21 03:53 UTC NOAA

KDRT 210353Z AUTO 12010KT 10SM CLR 34/13 A2990 RMK AO2 SLP106 T03440128 $


Station Type Date Time Source
KDRT Decoded METAR 2018/07/21 03:53 UTC NOAA

DEL RIO INTERNATIONAL AIRPORT, TX, United States (KDRT) 29-22N 100-55W 313M
Jul 20, 2018 - 11:53 PM EDT / 2018.07.21 0353 UTC
Wind: from the ESE (120 degrees) at 12 MPH (10 KT):0
Visibility: 10 mile(s):0
Sky conditions: clear
Temperature: 93.9 F (34.4 C)
Dew Point: 55.0 F (12.8 C)
Relative Humidity: 27%
Pressure (altimeter): 29.9 in. Hg (1012 hPa)
ob: KDRT 210353Z AUTO 12010KT 10SM CLR 34/13 A2990 RMK AO2 SLP106 T03440128
cycle: 4

Station Type Date Time Source
KDRT TAF 2018/07/20 20:57 UTC NOAA

TAF
AMD KDRT 201954Z 2020/2118 17015KT P6SM FEW250
FM210100 12010KT P6SM FEW250


Example: see airport list